sensor_id;sensor_type;location;lat;lon;timestamp;P1;durP1;ratioP1;P2;durP2;ratioP2
2610;SDS011;5612;51.134;17.058;2022-11-24T00:01:16;71.90;;;46.67;;
2610;SDS011;5612;51.134;17.058;2022-11-24T00:03:50;70.90;;;44.67;;
2610;SDS011;5612;51.134;17.058;2022-11-24T00:06:21;64.63;;;43.87;;
2610;SDS011;5612;51.134;17.058;2022-11-24T00:08:50;66.67;;;43.87;;
2610;SDS011;5612;51.134;17.058;2022-11-24T00:11:20;67.20;;;47.00;;
2610;SDS011;5612;51.134;17.058;2022-11-24T00:13:50;72.33;;;46.70;;
2610;SDS011;5612;51.134;17.058;2022-11-24T00:16:22;74.80;;;50.43;;
2610;SDS011;5612;51.134;17.058;2022-11-24T00:18:52;64.13;;;44.37;;
2610;SDS011;5612;51.134;17.058;2022-11-24T00:21:24;73.53;;;46.30;;
2610;SDS011;5612;51.134;17.058;2022-11-24T00:23:55;60.57;;;43.83;;
2610;SDS011;5612;51.134;17.058;2022-11-24T00:26:24;73.07;;;46.57;;
2610;SDS011;5612;51.134;17.058;2022-11-24T00:28:56;68.33;;;44.10;;
2610;SDS011;5612;51.134;17.058;2022-11-24T00:31:28;67.37;;;42.37;;
2610;SDS011;5612;51.134;17.058;2022-11-24T00:33:59;62.77;;;42.17;;
2610;SDS011;5612;51.134;17.058;2022-11-24T00:36:31;66.53;;;43.57;;
2610;SDS011;5612;51.134;17.058;2022-11-24T00:39:03;68.13;;;46.20;;
2610;SDS011;5612;51.134;17.058;2022-11-24T00:41:33;70.97;;;44.60;;
2610;SDS011;5612;51.134;17.058;2022-11-24T00:44:02;68.97;;;43.20;;
2610;SDS011;5612;51.134;17.058;2022-11-24T00:46:33;62.50;;;43.47;;
2610;SDS011;5612;51.134;17.058;2022-11-24T00:49:02;66.23;;;45.30;;
2610;SDS011;5612;51.134;17.058;2022-11-24T00:51:31;65.50;;;42.60;;
2610;SDS011;5612;51.134;17.058;2022-11-24T00:54:00;66.13;;;45.50;;
2610;SDS011;5612;51.134;17.058;2022-11-24T00:56:29;68.13;;;43.70;;
2610;SDS011;5612;51.134;17.058;2022-11-24T00:58:59;63.83;;;43.07;;
2610;SDS011;5612;51.134;17.058;2022-11-24T01:01:28;67.87;;;42.67;;
2610;SDS011;5612;51.134;17.058;2022-11-24T01:03:59;56.43;;;41.17;;
2610;SDS011;5612;51.134;17.058;2022-11-24T01:06:29;58.93;;;43.40;;
2610;SDS011;5612;51.134;17.058;2022-11-24T01:09:01;63.23;;;42.13;;
2610;SDS011;5612;51.134;17.058;2022-11-24T01:11:31;60.77;;;40.73;;
2610;SDS011;5612;51.134;17.058;2022-11-24T01:14:22;64.23;;;43.90;;
2610;SDS011;5612;51.134;17.058;2022-11-24T01:16:51;61.43;;;41.07;;
2610;SDS011;5612;51.134;17.058;2022-11-24T01:19:22;64.73;;;44.80;;
2610;SDS011;5612;51.134;17.058;2022-11-24T01:21:51;65.93;;;42.20;;
2610;SDS011;5612;51.134;17.058;2022-11-24T01:24:20;60.40;;;42.83;;
2610;SDS011;5612;51.134;17.058;2022-11-24T01:26:49;66.03;;;44.90;;
2610;SDS011;5612;51.134;17.058;2022-11-24T01:29:18;60.10;;;42.67;;
2610;SDS011;5612;51.134;17.058;2022-11-24T01:31:47;63.47;;;43.17;;
2610;SDS011;5612;51.134;17.058;2022-11-24T01:34:16;56.87;;;41.40;;
2610;SDS011;5612;51.134;17.058;2022-11-24T01:36:47;55.50;;;40.63;;
2610;SDS011;5612;51.134;17.058;2022-11-24T01:39:18;58.30;;;40.90;;
2610;SDS011;5612;51.134;17.058;2022-11-24T01:41:47;61.63;;;41.63;;
2610;SDS011;5612;51.134;17.058;2022-11-24T01:44:20;68.00;;;43.53;;
2610;SDS011;5612;51.134;17.058;2022-11-24T01:46:51;56.97;;;42.17;;
2610;SDS011;5612;51.134;17.058;2022-11-24T01:49:24;65.00;;;42.63;;
2610;SDS011;5612;51.134;17.058;2022-11-24T01:52:01;58.27;;;41.77;;
2610;SDS011;5612;51.134;17.058;2022-11-24T01:54:35;63.87;;;43.60;;
2610;SDS011;5612;51.134;17.058;2022-11-24T01:57:08;53.83;;;39.10;;
2610;SDS011;5612;51.134;17.058;2022-11-24T01:59:40;57.47;;;41.03;;
2610;SDS011;5612;51.134;17.058;2022-11-24T02:02:09;60.53;;;42.77;;
2610;SDS011;5612;51.134;17.058;2022-11-24T02:04:39;57.20;;;40.57;;
2610;SDS011;5612;51.134;17.058;2022-11-24T02:07:10;57.87;;;38.60;;
2610;SDS011;5612;51.134;17.058;2022-11-24T02:09:41;64.80;;;40.70;;
2610;SDS011;5612;51.134;17.058;2022-11-24T02:12:13;67.53;;;45.27;;
2610;SDS011;5612;51.134;17.058;2022-11-24T02:14:42;63.83;;;42.60;;
2610;SDS011;5612;51.134;17.058;2022-11-24T02:17:12;59.77;;;42.23;;
2610;SDS011;5612;51.134;17.058;2022-11-24T02:19:44;63.63;;;43.07;;
2610;SDS011;5612;51.134;17.058;2022-11-24T02:22:25;61.70;;;40.07;;
2610;SDS011;5612;51.134;17.058;2022-11-24T02:25:08;67.20;;;43.17;;
2610;SDS011;5612;51.134;17.058;2022-11-24T02:27:45;58.07;;;41.80;;
2610;SDS011;5612;51.134;17.058;2022-11-24T02:30:19;66.30;;;43.77;;
2610;SDS011;5612;51.134;17.058;2022-11-24T02:32:48;76.23;;;47.30;;
2610;SDS011;5612;51.134;17.058;2022-11-24T02:35:18;60.47;;;42.67;;
2610;SDS011;5612;51.134;17.058;2022-11-24T02:37:47;59.47;;;42.70;;
2610;SDS011;5612;51.134;17.058;2022-11-24T02:40:17;63.53;;;45.10;;
2610;SDS011;5612;51.134;17.058;2022-11-24T02:42:53;61.43;;;43.17;;
2610;SDS011;5612;51.134;17.058;2022-11-24T02:45:25;75.97;;;48.43;;
2610;SDS011;5612;51.134;17.058;2022-11-24T02:47:55;68.87;;;44.50;;
2610;SDS011;5612;51.134;17.058;2022-11-24T02:50:23;57.27;;;43.80;;
2610;SDS011;5612;51.134;17.058;2022-11-24T02:52:52;61.10;;;44.50;;
2610;SDS011;5612;51.134;17.058;2022-11-24T02:55:21;60.77;;;44.00;;
2610;SDS011;5612;51.134;17.058;2022-11-24T02:57:50;60.07;;;41.43;;
2610;SDS011;5612;51.134;17.058;2022-11-24T03:00:20;60.73;;;43.30;;
2610;SDS011;5612;51.134;17.058;2022-11-24T03:02:49;66.33;;;46.80;;
2610;SDS011;5612;51.134;17.058;2022-11-24T03:05:18;65.63;;;44.37;;
2610;SDS011;5612;51.134;17.058;2022-11-24T03:07:46;63.43;;;43.10;;
2610;SDS011;5612;51.134;17.058;2022-11-24T03:10:15;66.17;;;46.77;;
2610;SDS011;5612;51.134;17.058;2022-11-24T03:12:44;63.50;;;43.07;;
2610;SDS011;5612;51.134;17.058;2022-11-24T03:15:13;64.90;;;46.60;;
2610;SDS011;5612;51.134;17.058;2022-11-24T03:17:43;58.87;;;42.90;;
2610;SDS011;5612;51.134;17.058;2022-11-24T03:20:12;58.17;;;42.90;;
2610;SDS011;5612;51.134;17.058;2022-11-24T03:22:40;61.53;;;44.50;;
2610;SDS011;5612;51.134;17.058;2022-11-24T03:25:09;61.10;;;44.50;;
2610;SDS011;5612;51.134;17.058;2022-11-24T03:27:38;54.83;;;41.90;;
2610;SDS011;5612;51.134;17.058;2022-11-24T03:30:07;61.10;;;44.17;;
2610;SDS011;5612;51.134;17.058;2022-11-24T03:32:36;51.77;;;41.30;;
2610;SDS011;5612;51.134;17.058;2022-11-24T03:35:06;54.40;;;41.13;;
2610;SDS011;5612;51.134;17.058;2022-11-24T03:37:36;56.50;;;40.80;;
2610;SDS011;5612;51.134;17.058;2022-11-24T03:40:05;54.60;;;41.23;;
2610;SDS011;5612;51.134;17.058;2022-11-24T03:42:34;59.20;;;41.93;;
2610;SDS011;5612;51.134;17.058;2022-11-24T03:45:03;56.67;;;41.17;;
2610;SDS011;5612;51.134;17.058;2022-11-24T03:47:52;59.77;;;41.90;;
2610;SDS011;5612;51.134;17.058;2022-11-24T03:50:22;59.23;;;42.67;;
2610;SDS011;5612;51.134;17.058;2022-11-24T03:52:51;57.90;;;43.70;;
2610;SDS011;5612;51.134;17.058;2022-11-24T03:55:19;62.67;;;43.73;;
2610;SDS011;5612;51.134;17.058;2022-11-24T03:57:49;63.90;;;42.20;;
2610;SDS011;5612;51.134;17.058;2022-11-24T04:00:18;54.20;;;41.13;;
2610;SDS011;5612;51.134;17.058;2022-11-24T04:02:47;51.07;;;39.60;;
2610;SDS011;5612;51.134;17.058;2022-11-24T04:05:16;63.13;;;42.90;;
2610;SDS011;5612;51.134;17.058;2022-11-24T04:07:46;59.83;;;46.37;;
2610;SDS011;5612;51.134;17.058;2022-11-24T04:10:15;57.07;;;40.77;;
2610;SDS011;5612;51.134;17.058;2022-11-24T04:12:44;62.57;;;41.60;;
2610;SDS011;5612;51.134;17.058;2022-11-24T04:15:12;57.90;;;44.17;;
2610;SDS011;5612;51.134;17.058;2022-11-24T04:17:43;62.80;;;44.00;;
2610;SDS011;5612;51.134;17.058;2022-11-24T04:20:13;57.47;;;42.90;;
2610;SDS011;5612;51.134;17.058;2022-11-24T04:22:43;58.77;;;42.60;;
2610;SDS011;5612;51.134;17.058;2022-11-24T04:25:13;69.97;;;45.63;;
2610;SDS011;5612;51.134;17.058;2022-11-24T04:27:43;64.83;;;45.87;;
2610;SDS011;5612;51.134;17.058;2022-11-24T04:30:11;62.80;;;45.50;;
2610;SDS011;5612;51.134;17.058;2022-11-24T04:32:40;65.47;;;45.00;;
2610;SDS011;5612;51.134;17.058;2022-11-24T04:35:09;66.40;;;48.63;;
2610;SDS011;5612;51.134;17.058;2022-11-24T04:37:38;65.00;;;45.67;;
2610;SDS011;5612;51.134;17.058;2022-11-24T04:40:07;61.73;;;46.87;;
2610;SDS011;5612;51.134;17.058;2022-11-24T04:42:39;68.87;;;50.13;;
2610;SDS011;5612;51.134;17.058;2022-11-24T04:45:09;67.83;;;48.07;;
2610;SDS011;5612;51.134;17.058;2022-11-24T04:47:38;61.43;;;45.20;;
2610;SDS011;5612;51.134;17.058;2022-11-24T04:50:07;66.30;;;47.17;;
2610;SDS011;5612;51.134;17.058;2022-11-24T04:52:36;69.00;;;48.97;;
2610;SDS011;5612;51.134;17.058;2022-11-24T04:55:05;63.87;;;46.07;;
2610;SDS011;5612;51.134;17.058;2022-11-24T04:57:35;72.90;;;48.93;;
2610;SDS011;5612;51.134;17.058;2022-11-24T05:00:06;66.93;;;44.90;;
2610;SDS011;5612;51.134;17.058;2022-11-24T05:02:36;59.87;;;44.43;;
2610;SDS011;5612;51.134;17.058;2022-11-24T05:05:05;70.97;;;47.67;;
2610;SDS011;5612;51.134;17.058;2022-11-24T05:07:34;63.83;;;45.23;;
2610;SDS011;5612;51.134;17.058;2022-11-24T05:10:03;72.23;;;48.40;;
2610;SDS011;5612;51.134;17.058;2022-11-24T05:12:58;65.20;;;46.40;;
2610;SDS011;5612;51.134;17.058;2022-11-24T05:15:28;66.00;;;49.00;;
2610;SDS011;5612;51.134;17.058;2022-11-24T05:17:57;65.27;;;45.77;;
2610;SDS011;5612;51.134;17.058;2022-11-24T05:20:26;66.40;;;46.43;;
2610;SDS011;5612;51.134;17.058;2022-11-24T05:22:55;67.57;;;46.53;;
2610;SDS011;5612;51.134;17.058;2022-11-24T05:25:27;65.20;;;44.47;;
2610;SDS011;5612;51.134;17.058;2022-11-24T05:27:58;62.73;;;45.67;;
2610;SDS011;5612;51.134;17.058;2022-11-24T05:30:29;62.83;;;45.27;;
2610;SDS011;5612;51.134;17.058;2022-11-24T05:33:02;61.90;;;44.90;;
2610;SDS011;5612;51.134;17.058;2022-11-24T05:35:32;70.83;;;44.87;;
2610;SDS011;5612;51.134;17.058;2022-11-24T05:38:02;61.10;;;44.00;;
2610;SDS011;5612;51.134;17.058;2022-11-24T05:40:31;55.27;;;40.50;;
2610;SDS011;5612;51.134;17.058;2022-11-24T05:43:00;65.47;;;44.00;;
2610;SDS011;5612;51.134;17.058;2022-11-24T05:45:30;62.33;;;43.90;;
2610;SDS011;5612;51.134;17.058;2022-11-24T05:48:02;58.53;;;44.50;;
2610;SDS011;5612;51.134;17.058;2022-11-24T05:50:32;62.70;;;43.63;;
2610;SDS011;5612;51.134;17.058;2022-11-24T05:53:02;59.87;;;43.47;;
2610;SDS011;5612;51.134;17.058;2022-11-24T05:55:31;63.17;;;42.20;;
2610;SDS011;5612;51.134;17.058;2022-11-24T05:58:00;59.17;;;42.80;;
2610;SDS011;5612;51.134;17.058;2022-11-24T06:00:32;56.17;;;39.60;;
2610;SDS011;5612;51.134;17.058;2022-11-24T06:03:02;66.20;;;42.33;;
2610;SDS011;5612;51.134;17.058;2022-11-24T06:05:31;57.87;;;39.93;;
2610;SDS011;5612;51.134;17.058;2022-11-24T06:08:00;63.07;;;39.40;;
2610;SDS011;5612;51.134;17.058;2022-11-24T06:10:29;60.93;;;40.13;;
2610;SDS011;5612;51.134;17.058;2022-11-24T06:12:58;56.73;;;40.30;;
2610;SDS011;5612;51.134;17.058;2022-11-24T06:15:33;56.40;;;39.10;;
2610;SDS011;5612;51.134;17.058;2022-11-24T06:18:03;60.50;;;39.27;;
2610;SDS011;5612;51.134;17.058;2022-11-24T06:20:32;58.37;;;39.50;;
2610;SDS011;5612;51.134;17.058;2022-11-24T06:23:00;53.73;;;38.70;;
2610;SDS011;5612;51.134;17.058;2022-11-24T06:25:29;58.63;;;39.70;;
2610;SDS011;5612;51.134;17.058;2022-11-24T06:27:59;58.43;;;38.73;;
2610;SDS011;5612;51.134;17.058;2022-11-24T06:30:31;58.37;;;37.17;;
2610;SDS011;5612;51.134;17.058;2022-11-24T06:33:01;55.73;;;37.77;;
2610;SDS011;5612;51.134;17.058;2022-11-24T06:35:30;55.93;;;38.20;;
2610;SDS011;5612;51.134;17.058;2022-11-24T06:37:58;56.43;;;37.53;;
2610;SDS011;5612;51.134;17.058;2022-11-24T06:40:27;52.47;;;36.80;;
2610;SDS011;5612;51.134;17.058;2022-11-24T06:42:56;57.40;;;36.70;;
2610;SDS011;5612;51.134;17.058;2022-11-24T06:45:25;58.70;;;39.73;;
2610;SDS011;5612;51.134;17.058;2022-11-24T06:47:55;52.87;;;37.70;;
2610;SDS011;5612;51.134;17.058;2022-11-24T06:50:24;63.67;;;40.20;;
2610;SDS011;5612;51.134;17.058;2022-11-24T06:52:58;65.97;;;42.80;;
2610;SDS011;5612;51.134;17.058;2022-11-24T06:55:27;63.57;;;42.47;;
2610;SDS011;5612;51.134;17.058;2022-11-24T06:57:56;57.50;;;42.23;;
2610;SDS011;5612;51.134;17.058;2022-11-24T07:00:25;63.83;;;43.70;;
2610;SDS011;5612;51.134;17.058;2022-11-24T07:02:56;63.67;;;42.77;;
2610;SDS011;5612;51.134;17.058;2022-11-24T07:05:25;60.50;;;42.10;;
2610;SDS011;5612;51.134;17.058;2022-11-24T07:07:54;63.83;;;42.83;;
2610;SDS011;5612;51.134;17.058;2022-11-24T07:10:25;59.77;;;41.63;;
2610;SDS011;5612;51.134;17.058;2022-11-24T07:12:54;63.90;;;42.40;;
2610;SDS011;5612;51.134;17.058;2022-11-24T07:15:22;60.23;;;42.57;;
2610;SDS011;5612;51.134;17.058;2022-11-24T07:17:52;69.40;;;50.90;;
2610;SDS011;5612;51.134;17.058;2022-11-24T07:20:22;55.37;;;41.90;;
2610;SDS011;5612;51.134;17.058;2022-11-24T07:22:53;68.57;;;40.67;;
2610;SDS011;5612;51.134;17.058;2022-11-24T07:25:23;84.70;;;45.20;;
2610;SDS011;5612;51.134;17.058;2022-11-24T07:27:54;85.00;;;52.03;;
2610;SDS011;5612;51.134;17.058;2022-11-24T07:30:24;85.90;;;50.67;;
2610;SDS011;5612;51.134;17.058;2022-11-24T07:32:58;89.60;;;49.33;;
2610;SDS011;5612;51.134;17.058;2022-11-24T07:35:42;80.50;;;48.23;;
2610;SDS011;5612;51.134;17.058;2022-11-24T07:38:11;78.00;;;44.73;;
2610;SDS011;5612;51.134;17.058;2022-11-24T07:40:40;63.57;;;40.37;;
2610;SDS011;5612;51.134;17.058;2022-11-24T07:43:08;69.43;;;40.47;;
2610;SDS011;5612;51.134;17.058;2022-11-24T07:45:50;71.93;;;44.63;;
2610;SDS011;5612;51.134;17.058;2022-11-24T07:48:19;66.53;;;41.87;;
2610;SDS011;5612;51.134;17.058;2022-11-24T07:50:50;64.20;;;40.53;;
2610;SDS011;5612;51.134;17.058;2022-11-24T07:53:22;57.50;;;39.27;;
2610;SDS011;5612;51.134;17.058;2022-11-24T07:55:51;60.30;;;37.77;;
2610;SDS011;5612;51.134;17.058;2022-11-24T07:58:21;59.97;;;40.60;;
2610;SDS011;5612;51.134;17.058;2022-11-24T08:00:57;61.83;;;37.83;;
2610;SDS011;5612;51.134;17.058;2022-11-24T08:03:26;59.30;;;38.30;;
2610;SDS011;5612;51.134;17.058;2022-11-24T08:05:57;51.37;;;34.77;;
2610;SDS011;5612;51.134;17.058;2022-11-24T08:08:47;51.80;;;32.70;;
2610;SDS011;5612;51.134;17.058;2022-11-24T08:11:16;53.00;;;32.60;;
2610;SDS011;5612;51.134;17.058;2022-11-24T08:13:45;51.60;;;33.87;;
2610;SDS011;5612;51.134;17.058;2022-11-24T08:16:14;53.33;;;33.37;;
2610;SDS011;5612;51.134;17.058;2022-11-24T08:18:47;76.03;;;36.33;;
2610;SDS011;5612;51.134;17.058;2022-11-24T08:21:18;57.87;;;37.27;;
2610;SDS011;5612;51.134;17.058;2022-11-24T08:23:52;69.77;;;41.87;;
2610;SDS011;5612;51.134;17.058;2022-11-24T08:26:21;69.47;;;40.97;;
2610;SDS011;5612;51.134;17.058;2022-11-24T08:28:52;69.10;;;38.87;;
2610;SDS011;5612;51.134;17.058;2022-11-24T08:31:22;77.43;;;42.50;;
2610;SDS011;5612;51.134;17.058;2022-11-24T08:33:54;68.93;;;38.83;;
2610;SDS011;5612;51.134;17.058;2022-11-24T08:36:24;61.53;;;37.93;;
2610;SDS011;5612;51.134;17.058;2022-11-24T08:38:54;56.43;;;36.20;;
2610;SDS011;5612;51.134;17.058;2022-11-24T08:41:24;60.97;;;37.20;;
2610;SDS011;5612;51.134;17.058;2022-11-24T08:43:53;50.80;;;34.30;;
2610;SDS011;5612;51.134;17.058;2022-11-24T08:46:22;60.77;;;36.57;;
2610;SDS011;5612;51.134;17.058;2022-11-24T08:48:52;49.43;;;32.90;;
2610;SDS011;5612;51.134;17.058;2022-11-24T08:51:22;48.77;;;31.50;;
2610;SDS011;5612;51.134;17.058;2022-11-24T08:53:54;43.63;;;30.73;;
2610;SDS011;5612;51.134;17.058;2022-11-24T08:56:24;49.27;;;33.83;;
2610;SDS011;5612;51.134;17.058;2022-11-24T08:58:54;50.77;;;32.80;;
2610;SDS011;5612;51.134;17.058;2022-11-24T09:01:23;54.00;;;33.97;;
2610;SDS011;5612;51.134;17.058;2022-11-24T09:03:53;48.90;;;33.90;;
2610;SDS011;5612;51.134;17.058;2022-11-24T09:06:23;48.30;;;33.63;;
2610;SDS011;5612;51.134;17.058;2022-11-24T09:08:57;46.80;;;34.17;;
2610;SDS011;5612;51.134;17.058;2022-11-24T09:11:27;51.53;;;35.60;;
2610;SDS011;5612;51.134;17.058;2022-11-24T09:13:56;46.73;;;32.93;;
2610;SDS011;5612;51.134;17.058;2022-11-24T09:16:26;51.47;;;35.53;;
2610;SDS011;5612;51.134;17.058;2022-11-24T09:18:57;53.07;;;34.80;;
2610;SDS011;5612;51.134;17.058;2022-11-24T09:21:28;49.77;;;35.23;;
2610;SDS011;5612;51.134;17.058;2022-11-24T09:23:59;47.90;;;34.93;;
2610;SDS011;5612;51.134;17.058;2022-11-24T09:26:29;51.23;;;34.47;;
2610;SDS011;5612;51.134;17.058;2022-11-24T09:29:00;52.27;;;34.23;;
2610;SDS011;5612;51.134;17.058;2022-11-24T09:31:31;57.43;;;36.17;;
2610;SDS011;5612;51.134;17.058;2022-11-24T09:34:01;53.13;;;34.90;;
2610;SDS011;5612;51.134;17.058;2022-11-24T09:36:33;56.17;;;37.13;;
2610;SDS011;5612;51.134;17.058;2022-11-24T09:39:02;53.17;;;36.20;;
2610;SDS011;5612;51.134;17.058;2022-11-24T09:41:37;53.93;;;36.60;;
2610;SDS011;5612;51.134;17.058;2022-11-24T09:44:30;45.40;;;32.07;;
2610;SDS011;5612;51.134;17.058;2022-11-24T09:47:14;60.17;;;36.87;;
2610;SDS011;5612;51.134;17.058;2022-11-24T09:49:52;53.57;;;35.47;;
2610;SDS011;5612;51.134;17.058;2022-11-24T09:52:34;56.07;;;39.70;;
2610;SDS011;5612;51.134;17.058;2022-11-24T09:55:13;56.00;;;36.90;;
2610;SDS011;5612;51.134;17.058;2022-11-24T09:57:53;54.53;;;36.53;;
2610;SDS011;5612;51.134;17.058;2022-11-24T10:00:30;55.20;;;36.67;;
2610;SDS011;5612;51.134;17.058;2022-11-24T10:03:01;56.57;;;39.40;;
2610;SDS011;5612;51.134;17.058;2022-11-24T10:05:32;60.97;;;40.30;;
2610;SDS011;5612;51.134;17.058;2022-11-24T10:08:08;58.47;;;38.93;;
2610;SDS011;5612;51.134;17.058;2022-11-24T10:10:48;61.70;;;41.20;;
2610;SDS011;5612;51.134;17.058;2022-11-24T10:13:27;59.23;;;40.60;;
2610;SDS011;5612;51.134;17.058;2022-11-24T10:16:13;59.97;;;40.97;;
2610;SDS011;5612;51.134;17.058;2022-11-24T10:18:55;62.90;;;43.63;;
2610;SDS011;5612;51.134;17.058;2022-11-24T10:21:36;56.87;;;42.80;;
2610;SDS011;5612;51.134;17.058;2022-11-24T10:24:32;60.30;;;42.77;;
2610;SDS011;5612;51.134;17.058;2022-11-24T10:27:13;60.10;;;43.83;;
2610;SDS011;5612;51.134;17.058;2022-11-24T10:29:45;60.00;;;42.60;;
2610;SDS011;5612;51.134;17.058;2022-11-24T10:32:17;65.07;;;45.63;;
2610;SDS011;5612;51.134;17.058;2022-11-24T10:34:48;67.87;;;45.50;;
2610;SDS011;5612;51.134;17.058;2022-11-24T10:37:19;68.53;;;46.27;;
2610;SDS011;5612;51.134;17.058;2022-11-24T10:39:57;69.27;;;47.43;;
2610;SDS011;5612;51.134;17.058;2022-11-24T10:42:31;64.87;;;47.77;;
2610;SDS011;5612;51.134;17.058;2022-11-24T10:45:05;61.13;;;44.37;;
2610;SDS011;5612;51.134;17.058;2022-11-24T10:47:38;58.83;;;44.07;;
2610;SDS011;5612;51.134;17.058;2022-11-24T10:50:11;73.70;;;45.30;;
2610;SDS011;5612;51.134;17.058;2022-11-24T10:52:49;62.23;;;45.73;;
2610;SDS011;5612;51.134;17.058;2022-11-24T10:55:24;61.93;;;44.87;;
2610;SDS011;5612;51.134;17.058;2022-11-24T10:57:53;61.40;;;45.07;;
2610;SDS011;5612;51.134;17.058;2022-11-24T11:00:31;69.43;;;47.03;;
2610;SDS011;5612;51.134;17.058;2022-11-24T11:03:10;63.27;;;46.73;;
2610;SDS011;5612;51.134;17.058;2022-11-24T11:05:46;60.67;;;45.20;;
2610;SDS011;5612;51.134;17.058;2022-11-24T11:08:19;60.83;;;44.97;;
2610;SDS011;5612;51.134;17.058;2022-11-24T11:11:06;67.77;;;46.47;;
2610;SDS011;5612;51.134;17.058;2022-11-24T11:13:51;57.57;;;45.17;;
2610;SDS011;5612;51.134;17.058;2022-11-24T11:16:33;67.73;;;46.87;;
2610;SDS011;5612;51.134;17.058;2022-11-24T11:19:04;60.90;;;46.97;;
2610;SDS011;5612;51.134;17.058;2022-11-24T11:22:14;66.50;;;45.10;;
2610;SDS011;5612;51.134;17.058;2022-11-24T11:25:00;61.50;;;46.73;;
2610;SDS011;5612;51.134;17.058;2022-11-24T11:27:34;61.97;;;45.40;;
2610;SDS011;5612;51.134;17.058;2022-11-24T11:30:17;71.57;;;49.33;;
2610;SDS011;5612;51.134;17.058;2022-11-24T11:33:17;59.67;;;46.93;;
2610;SDS011;5612;51.134;17.058;2022-11-24T11:36:10;60.60;;;46.30;;
2610;SDS011;5612;51.134;17.058;2022-11-24T11:38:39;63.07;;;47.87;;
2610;SDS011;5612;51.134;17.058;2022-11-24T11:41:09;62.97;;;46.07;;
2610;SDS011;5612;51.134;17.058;2022-11-24T11:43:51;61.17;;;46.90;;
2610;SDS011;5612;51.134;17.058;2022-11-24T11:46:28;61.30;;;48.57;;
2610;SDS011;5612;51.134;17.058;2022-11-24T11:48:59;61.33;;;48.03;;
2610;SDS011;5612;51.134;17.058;2022-11-24T11:51:35;57.47;;;44.60;;
2610;SDS011;5612;51.134;17.058;2022-11-24T11:54:13;63.47;;;46.27;;
2610;SDS011;5612;51.134;17.058;2022-11-24T11:56:48;64.87;;;47.90;;
2610;SDS011;5612;51.134;17.058;2022-11-24T11:59:33;64.93;;;48.10;;
2610;SDS011;5612;51.134;17.058;2022-11-24T12:02:23;69.90;;;49.30;;
2610;SDS011;5612;51.134;17.058;2022-11-24T12:05:09;62.40;;;46.23;;
2610;SDS011;5612;51.134;17.058;2022-11-24T12:07:51;65.27;;;46.50;;
2610;SDS011;5612;51.134;17.058;2022-11-24T12:10:39;60.07;;;46.00;;
2610;SDS011;5612;51.134;17.058;2022-11-24T12:16:26;61.97;;;46.10;;
2610;SDS011;5612;51.134;17.058;2022-11-24T12:19:04;55.17;;;44.90;;
2610;SDS011;5612;51.134;17.058;2022-11-24T12:21:43;55.63;;;43.03;;
2610;SDS011;5612;51.134;17.058;2022-11-24T12:24:22;58.87;;;46.37;;
2610;SDS011;5612;51.134;17.058;2022-11-24T12:27:03;58.90;;;47.20;;
2610;SDS011;5612;51.134;17.058;2022-11-24T12:29:48;59.37;;;44.87;;
2610;SDS011;5612;51.134;17.058;2022-11-24T12:35:36;65.83;;;46.40;;
2610;SDS011;5612;51.134;17.058;2022-11-24T12:38:13;61.53;;;45.47;;
2610;SDS011;5612;51.134;17.058;2022-11-24T12:40:59;65.50;;;47.43;;
2610;SDS011;5612;51.134;17.058;2022-11-24T12:44:15;67.33;;;47.10;;
2610;SDS011;5612;51.134;17.058;2022-11-24T12:46:59;63.00;;;48.27;;
2610;SDS011;5612;51.134;17.058;2022-11-24T12:49:37;56.20;;;44.70;;
2610;SDS011;5612;51.134;17.058;2022-11-24T12:52:17;64.33;;;47.90;;
2610;SDS011;5612;51.134;17.058;2022-11-24T12:54:48;60.93;;;45.80;;
2610;SDS011;5612;51.134;17.058;2022-11-24T12:57:17;62.47;;;45.60;;
2610;SDS011;5612;51.134;17.058;2022-11-24T12:59:52;62.83;;;43.77;;
2610;SDS011;5612;51.134;17.058;2022-11-24T13:02:28;57.17;;;44.20;;
2610;SDS011;5612;51.134;17.058;2022-11-24T13:05:13;61.53;;;44.53;;
2610;SDS011;5612;51.134;17.058;2022-11-24T13:07:53;63.03;;;48.73;;
2610;SDS011;5612;51.134;17.058;2022-11-24T13:10:28;63.83;;;48.67;;
2610;SDS011;5612;51.134;17.058;2022-11-24T13:13:18;56.83;;;42.80;;
2610;SDS011;5612;51.134;17.058;2022-11-24T13:16:05;56.97;;;44.63;;
2610;SDS011;5612;51.134;17.058;2022-11-24T13:19:06;60.97;;;44.50;;
2610;SDS011;5612;51.134;17.058;2022-11-24T13:21:48;64.37;;;45.90;;
2610;SDS011;5612;51.134;17.058;2022-11-24T13:24:27;66.63;;;43.87;;
2610;SDS011;5612;51.134;17.058;2022-11-24T13:33:25;62.27;;;45.37;;
2610;SDS011;5612;51.134;17.058;2022-11-24T13:38:59;61.70;;;45.03;;
2610;SDS011;5612;51.134;17.058;2022-11-24T13:44:56;71.27;;;45.87;;
2610;SDS011;5612;51.134;17.058;2022-11-24T13:47:36;65.80;;;44.03;;
2610;SDS011;5612;51.134;17.058;2022-11-24T13:53:11;55.40;;;41.13;;
2610;SDS011;5612;51.134;17.058;2022-11-24T13:55:51;59.50;;;42.33;;
2610;SDS011;5612;51.134;17.058;2022-11-24T13:58:29;56.77;;;42.00;;
2610;SDS011;5612;51.134;17.058;2022-11-24T14:01:09;60.07;;;44.50;;
2610;SDS011;5612;51.134;17.058;2022-11-24T14:03:57;63.13;;;43.37;;
2610;SDS011;5612;51.134;17.058;2022-11-24T14:06:59;57.00;;;40.97;;
2610;SDS011;5612;51.134;17.058;2022-11-24T14:09:36;57.97;;;42.60;;
2610;SDS011;5612;51.134;17.058;2022-11-24T14:12:14;58.60;;;42.27;;
2610;SDS011;5612;51.134;17.058;2022-11-24T14:14:45;62.60;;;46.27;;
2610;SDS011;5612;51.134;17.058;2022-11-24T14:17:19;60.67;;;43.60;;
2610;SDS011;5612;51.134;17.058;2022-11-24T14:19:49;73.33;;;49.00;;
2610;SDS011;5612;51.134;17.058;2022-11-24T14:22:20;65.47;;;45.07;;
2610;SDS011;5612;51.134;17.058;2022-11-24T14:24:53;75.57;;;53.60;;
2610;SDS011;5612;51.134;17.058;2022-11-24T14:27:26;67.53;;;47.93;;
2610;SDS011;5612;51.134;17.058;2022-11-24T14:29:57;66.20;;;45.90;;
2610;SDS011;5612;51.134;17.058;2022-11-24T14:32:27;68.50;;;49.93;;
2610;SDS011;5612;51.134;17.058;2022-11-24T14:34:56;65.73;;;48.10;;
2610;SDS011;5612;51.134;17.058;2022-11-24T14:37:25;60.70;;;45.83;;
2610;SDS011;5612;51.134;17.058;2022-11-24T14:39:54;66.00;;;49.53;;
2610;SDS011;5612;51.134;17.058;2022-11-24T14:42:24;69.23;;;45.90;;
2610;SDS011;5612;51.134;17.058;2022-11-24T14:44:55;71.70;;;46.47;;
2610;SDS011;5612;51.134;17.058;2022-11-24T14:47:27;68.47;;;46.13;;
2610;SDS011;5612;51.134;17.058;2022-11-24T14:50:05;74.67;;;52.40;;
2610;SDS011;5612;51.134;17.058;2022-11-24T14:52:41;71.20;;;49.10;;
2610;SDS011;5612;51.134;17.058;2022-11-24T14:55:23;68.00;;;46.60;;
2610;SDS011;5612;51.134;17.058;2022-11-24T14:57:55;67.83;;;49.67;;
2610;SDS011;5612;51.134;17.058;2022-11-24T15:00:26;67.23;;;48.67;;
2610;SDS011;5612;51.134;17.058;2022-11-24T15:03:06;67.07;;;47.43;;
2610;SDS011;5612;51.134;17.058;2022-11-24T15:05:50;69.77;;;48.80;;
2610;SDS011;5612;51.134;17.058;2022-11-24T15:08:20;70.80;;;47.87;;
2610;SDS011;5612;51.134;17.058;2022-11-24T15:10:54;70.73;;;47.73;;
2610;SDS011;5612;51.134;17.058;2022-11-24T15:13:27;119.97;;;89.10;;
2610;SDS011;5612;51.134;17.058;2022-11-24T15:16:01;92.97;;;57.83;;
2610;SDS011;5612;51.134;17.058;2022-11-24T15:18:36;77.30;;;55.00;;
2610;SDS011;5612;51.134;17.058;2022-11-24T15:21:08;76.47;;;53.13;;
2610;SDS011;5612;51.134;17.058;2022-11-24T15:23:51;73.33;;;52.37;;
2610;SDS011;5612;51.134;17.058;2022-11-24T15:26:33;69.57;;;49.50;;
2610;SDS011;5612;51.134;17.058;2022-11-24T15:29:09;72.50;;;52.60;;
2610;SDS011;5612;51.134;17.058;2022-11-24T15:31:38;74.73;;;52.90;;